sensor_id;sensor_type;location;lat;lon;timestamp;P1;durP1;ratioP1;P2;durP2;ratioP2
26822;SDS011;14852;51.910;8.878;2023-12-22T00:00:44;12.52;;;3.53;;
26822;SDS011;14852;51.910;8.878;2023-12-22T00:03:12;18.90;;;5.25;;
26822;SDS011;14852;51.910;8.878;2023-12-22T00:05:39;11.85;;;4.20;;
26822;SDS011;14852;51.910;8.878;2023-12-22T00:08:05;12.25;;;3.78;;
26822;SDS011;14852;51.910;8.878;2023-12-22T00:10:31;17.08;;;5.13;;
26822;SDS011;14852;51.910;8.878;2023-12-22T00:12:56;14.75;;;4.45;;
26822;SDS011;14852;51.910;8.878;2023-12-22T00:15:22;11.63;;;3.50;;
26822;SDS011;14852;51.910;8.878;2023-12-22T00:17:48;22.15;;;4.63;;
26822;SDS011;14852;51.910;8.878;2023-12-22T00:20:14;14.45;;;3.33;;
26822;SDS011;14852;51.910;8.878;2023-12-22T00:22:40;11.50;;;4.32;;
26822;SDS011;14852;51.910;8.878;2023-12-22T00:25:06;11.75;;;3.28;;
26822;SDS011;14852;51.910;8.878;2023-12-22T00:27:35;10.68;;;4.18;;
26822;SDS011;14852;51.910;8.878;2023-12-22T00:30:00;10.00;;;4.15;;
26822;SDS011;14852;51.910;8.878;2023-12-22T00:32:26;15.90;;;3.97;;
26822;SDS011;14852;51.910;8.878;2023-12-22T00:34:52;12.25;;;3.50;;
26822;SDS011;14852;51.910;8.878;2023-12-22T00:37:18;14.07;;;5.28;;
26822;SDS011;14852;51.910;8.878;2023-12-22T00:39:43;12.38;;;3.03;;
26822;SDS011;14852;51.910;8.878;2023-12-22T00:42:09;10.57;;;3.90;;
26822;SDS011;14852;51.910;8.878;2023-12-22T00:44:35;13.02;;;4.28;;
26822;SDS011;14852;51.910;8.878;2023-12-22T00:47:01;16.17;;;4.95;;
26822;SDS011;14852;51.910;8.878;2023-12-22T00:49:27;13.80;;;4.20;;
26822;SDS011;14852;51.910;8.878;2023-12-22T00:51:53;12.30;;;4.75;;
26822;SDS011;14852;51.910;8.878;2023-12-22T00:54:18;14.60;;;5.03;;
26822;SDS011;14852;51.910;8.878;2023-12-22T00:56:44;10.48;;;4.03;;
26822;SDS011;14852;51.910;8.878;2023-12-22T00:59:10;19.02;;;3.78;;
26822;SDS011;14852;51.910;8.878;2023-12-22T01:01:36;13.88;;;3.63;;
26822;SDS011;14852;51.910;8.878;2023-12-22T01:04:02;8.18;;;2.40;;
26822;SDS011;14852;51.910;8.878;2023-12-22T01:06:27;5.35;;;1.75;;
26822;SDS011;14852;51.910;8.878;2023-12-22T01:11:26;5.78;;;2.10;;
26822;SDS011;14852;51.910;8.878;2023-12-22T01:13:51;7.25;;;2.55;;
26822;SDS011;14852;51.910;8.878;2023-12-22T01:16:17;8.07;;;2.63;;
26822;SDS011;14852;51.910;8.878;2023-12-22T01:18:46;14.93;;;3.83;;
26822;SDS011;14852;51.910;8.878;2023-12-22T01:21:12;10.98;;;3.65;;
26822;SDS011;14852;51.910;8.878;2023-12-22T01:23:38;11.35;;;3.92;;
26822;SDS011;14852;51.910;8.878;2023-12-22T01:26:03;18.85;;;5.13;;
26822;SDS011;14852;51.910;8.878;2023-12-22T01:28:29;20.42;;;5.50;;
26822;SDS011;14852;51.910;8.878;2023-12-22T01:30:55;8.25;;;3.17;;
26822;SDS011;14852;51.910;8.878;2023-12-22T01:33:20;20.02;;;6.35;;
26822;SDS011;14852;51.910;8.878;2023-12-22T01:35:46;15.85;;;5.05;;
26822;SDS011;14852;51.910;8.878;2023-12-22T01:38:12;13.73;;;5.15;;
26822;SDS011;14852;51.910;8.878;2023-12-22T01:40:38;17.17;;;3.88;;
26822;SDS011;14852;51.910;8.878;2023-12-22T01:43:04;20.70;;;4.20;;
26822;SDS011;14852;51.910;8.878;2023-12-22T01:45:29;16.88;;;3.83;;
26822;SDS011;14852;51.910;8.878;2023-12-22T01:47:55;14.80;;;4.30;;
26822;SDS011;14852;51.910;8.878;2023-12-22T01:50:21;12.45;;;3.45;;
26822;SDS011;14852;51.910;8.878;2023-12-22T01:52:47;5.75;;;2.50;;
26822;SDS011;14852;51.910;8.878;2023-12-22T01:55:13;7.97;;;2.58;;
26822;SDS011;14852;51.910;8.878;2023-12-22T01:57:42;7.07;;;2.35;;
26822;SDS011;14852;51.910;8.878;2023-12-22T02:00:10;9.90;;;2.85;;
26822;SDS011;14852;51.910;8.878;2023-12-22T02:02:37;8.75;;;2.28;;
26822;SDS011;14852;51.910;8.878;2023-12-22T02:05:05;6.45;;;2.28;;
26822;SDS011;14852;51.910;8.878;2023-12-22T02:07:34;7.78;;;2.53;;
26822;SDS011;14852;51.910;8.878;2023-12-22T02:10:00;9.60;;;2.47;;
26822;SDS011;14852;51.910;8.878;2023-12-22T02:12:26;6.13;;;1.95;;
26822;SDS011;14852;51.910;8.878;2023-12-22T02:14:51;7.10;;;3.17;;
26822;SDS011;14852;51.910;8.878;2023-12-22T02:17:19;7.28;;;2.38;;
26822;SDS011;14852;51.910;8.878;2023-12-22T02:19:51;18.88;;;4.13;;
26822;SDS011;14852;51.910;8.878;2023-12-22T02:22:18;15.95;;;5.55;;
26822;SDS011;14852;51.910;8.878;2023-12-22T02:24:43;14.60;;;4.20;;
26822;SDS011;14852;51.910;8.878;2023-12-22T02:32:40;6.15;;;2.80;;
26822;SDS011;14852;51.910;8.878;2023-12-22T02:35:10;17.35;;;3.92;;
26822;SDS011;14852;51.910;8.878;2023-12-22T02:37:41;9.70;;;3.30;;
26822;SDS011;14852;51.910;8.878;2023-12-22T02:40:10;15.65;;;3.85;;
26822;SDS011;14852;51.910;8.878;2023-12-22T02:42:36;15.45;;;4.30;;
26822;SDS011;14852;51.910;8.878;2023-12-22T02:45:06;11.60;;;2.97;;
26822;SDS011;14852;51.910;8.878;2023-12-22T02:47:43;13.95;;;3.78;;
26822;SDS011;14852;51.910;8.878;2023-12-22T02:50:09;15.77;;;3.95;;
26822;SDS011;14852;51.910;8.878;2023-12-22T02:52:36;15.23;;;4.45;;
26822;SDS011;14852;51.910;8.878;2023-12-22T02:55:02;12.02;;;4.18;;
26822;SDS011;14852;51.910;8.878;2023-12-22T02:57:29;12.15;;;3.60;;
26822;SDS011;14852;51.910;8.878;2023-12-22T02:59:54;13.77;;;3.33;;
26822;SDS011;14852;51.910;8.878;2023-12-22T03:02:21;16.08;;;4.22;;
26822;SDS011;14852;51.910;8.878;2023-12-22T03:04:49;13.38;;;3.70;;
26822;SDS011;14852;51.910;8.878;2023-12-22T03:07:15;13.63;;;3.72;;
26822;SDS011;14852;51.910;8.878;2023-12-22T03:09:41;16.20;;;4.90;;
26822;SDS011;14852;51.910;8.878;2023-12-22T03:12:08;14.27;;;3.17;;
26822;SDS011;14852;51.910;8.878;2023-12-22T03:14:35;11.57;;;3.72;;
26822;SDS011;14852;51.910;8.878;2023-12-22T03:17:02;11.10;;;3.75;;
26822;SDS011;14852;51.910;8.878;2023-12-22T03:19:30;14.02;;;3.95;;
26822;SDS011;14852;51.910;8.878;2023-12-22T03:21:57;19.88;;;4.70;;
26822;SDS011;14852;51.910;8.878;2023-12-22T03:24:23;15.43;;;4.28;;
26822;SDS011;14852;51.910;8.878;2023-12-22T03:26:50;11.13;;;3.72;;
26822;SDS011;14852;51.910;8.878;2023-12-22T03:29:16;16.38;;;3.92;;
26822;SDS011;14852;51.910;8.878;2023-12-22T03:31:42;16.33;;;4.38;;
26822;SDS011;14852;51.910;8.878;2023-12-22T03:34:09;14.65;;;3.53;;
26822;SDS011;14852;51.910;8.878;2023-12-22T03:36:35;16.58;;;4.47;;
26822;SDS011;14852;51.910;8.878;2023-12-22T03:39:01;15.00;;;3.63;;
26822;SDS011;14852;51.910;8.878;2023-12-22T03:41:27;13.48;;;3.47;;
26822;SDS011;14852;51.910;8.878;2023-12-22T03:43:55;15.10;;;4.30;;
26822;SDS011;14852;51.910;8.878;2023-12-22T03:46:21;11.43;;;3.88;;
26822;SDS011;14852;51.910;8.878;2023-12-22T03:48:48;16.02;;;4.22;;
26822;SDS011;14852;51.910;8.878;2023-12-22T03:51:15;11.13;;;3.55;;
26822;SDS011;14852;51.910;8.878;2023-12-22T03:53:41;13.48;;;3.65;;
26822;SDS011;14852;51.910;8.878;2023-12-22T03:56:07;16.00;;;3.75;;
26822;SDS011;14852;51.910;8.878;2023-12-22T03:58:34;11.60;;;4.00;;
26822;SDS011;14852;51.910;8.878;2023-12-22T04:01:00;26.85;;;4.00;;
26822;SDS011;14852;51.910;8.878;2023-12-22T04:03:26;12.63;;;3.22;;
26822;SDS011;14852;51.910;8.878;2023-12-22T04:05:52;16.92;;;3.70;;
26822;SDS011;14852;51.910;8.878;2023-12-22T04:08:18;8.10;;;4.20;;
26822;SDS011;14852;51.910;8.878;2023-12-22T04:10:45;12.02;;;3.45;;
26822;SDS011;14852;51.910;8.878;2023-12-22T04:13:12;10.95;;;3.83;;
26822;SDS011;14852;51.910;8.878;2023-12-22T04:15:38;13.00;;;3.80;;
26822;SDS011;14852;51.910;8.878;2023-12-22T04:18:03;12.35;;;3.85;;
26822;SDS011;14852;51.910;8.878;2023-12-22T04:20:29;11.52;;;3.35;;
26822;SDS011;14852;51.910;8.878;2023-12-22T04:22:55;9.57;;;3.88;;
26822;SDS011;14852;51.910;8.878;2023-12-22T04:25:21;9.10;;;3.55;;
26822;SDS011;14852;51.910;8.878;2023-12-22T04:27:48;15.00;;;3.92;;
26822;SDS011;14852;51.910;8.878;2023-12-22T04:30:14;9.65;;;3.10;;
26822;SDS011;14852;51.910;8.878;2023-12-22T04:32:40;7.90;;;3.08;;
26822;SDS011;14852;51.910;8.878;2023-12-22T04:35:06;12.10;;;3.13;;
26822;SDS011;14852;51.910;8.878;2023-12-22T04:37:32;9.95;;;3.10;;
26822;SDS011;14852;51.910;8.878;2023-12-22T04:39:58;11.18;;;3.38;;
26822;SDS011;14852;51.910;8.878;2023-12-22T04:42:24;10.90;;;3.38;;
26822;SDS011;14852;51.910;8.878;2023-12-22T04:44:50;8.20;;;2.55;;
26822;SDS011;14852;51.910;8.878;2023-12-22T04:47:16;12.88;;;3.97;;
26822;SDS011;14852;51.910;8.878;2023-12-22T04:49:42;10.15;;;2.47;;
26822;SDS011;14852;51.910;8.878;2023-12-22T04:52:10;9.45;;;2.50;;
26822;SDS011;14852;51.910;8.878;2023-12-22T04:54:36;10.90;;;2.97;;
26822;SDS011;14852;51.910;8.878;2023-12-22T04:57:03;4.38;;;2.13;;
26822;SDS011;14852;51.910;8.878;2023-12-22T04:59:29;7.78;;;1.98;;
26822;SDS011;14852;51.910;8.878;2023-12-22T05:01:55;5.88;;;2.78;;
26822;SDS011;14852;51.910;8.878;2023-12-22T05:04:20;10.30;;;2.10;;
26822;SDS011;14852;51.910;8.878;2023-12-22T05:06:47;6.18;;;2.22;;
26822;SDS011;14852;51.910;8.878;2023-12-22T05:09:13;7.40;;;1.67;;
26822;SDS011;14852;51.910;8.878;2023-12-22T05:11:40;3.70;;;1.95;;
26822;SDS011;14852;51.910;8.878;2023-12-22T05:14:05;5.18;;;1.70;;
26822;SDS011;14852;51.910;8.878;2023-12-22T05:16:31;7.53;;;2.30;;
26822;SDS011;14852;51.910;8.878;2023-12-22T05:18:57;7.05;;;2.00;;
26822;SDS011;14852;51.910;8.878;2023-12-22T05:21:23;5.78;;;1.73;;
26822;SDS011;14852;51.910;8.878;2023-12-22T05:23:49;7.22;;;2.25;;
26822;SDS011;14852;51.910;8.878;2023-12-22T05:26:19;6.97;;;1.98;;
26822;SDS011;14852;51.910;8.878;2023-12-22T05:28:46;5.82;;;1.75;;
26822;SDS011;14852;51.910;8.878;2023-12-22T05:31:12;5.85;;;1.77;;
26822;SDS011;14852;51.910;8.878;2023-12-22T05:33:38;5.07;;;1.55;;
26822;SDS011;14852;51.910;8.878;2023-12-22T05:36:04;3.67;;;1.40;;
26822;SDS011;14852;51.910;8.878;2023-12-22T05:38:30;3.67;;;1.70;;
26822;SDS011;14852;51.910;8.878;2023-12-22T05:40:56;4.15;;;1.60;;
26822;SDS011;14852;51.910;8.878;2023-12-22T05:43:22;3.97;;;1.20;;
26822;SDS011;14852;51.910;8.878;2023-12-22T05:45:48;3.90;;;1.83;;
26822;SDS011;14852;51.910;8.878;2023-12-22T05:48:13;2.88;;;1.27;;
26822;SDS011;14852;51.910;8.878;2023-12-22T05:50:39;5.63;;;1.42;;
26822;SDS011;14852;51.910;8.878;2023-12-22T05:53:05;6.22;;;2.13;;
26822;SDS011;14852;51.910;8.878;2023-12-22T05:55:31;3.28;;;1.30;;
26822;SDS011;14852;51.910;8.878;2023-12-22T05:57:57;4.50;;;1.58;;
26822;SDS011;14852;51.910;8.878;2023-12-22T06:00:23;11.05;;;3.55;;
26822;SDS011;14852;51.910;8.878;2023-12-22T06:02:48;7.68;;;3.00;;
26822;SDS011;14852;51.910;8.878;2023-12-22T06:05:14;5.25;;;2.28;;
26822;SDS011;14852;51.910;8.878;2023-12-22T06:07:40;4.85;;;1.80;;
26822;SDS011;14852;51.910;8.878;2023-12-22T06:10:07;4.50;;;2.10;;
26822;SDS011;14852;51.910;8.878;2023-12-22T06:12:34;5.63;;;1.70;;
26822;SDS011;14852;51.910;8.878;2023-12-22T06:15:01;5.38;;;2.00;;
26822;SDS011;14852;51.910;8.878;2023-12-22T06:17:27;6.35;;;2.13;;
26822;SDS011;14852;51.910;8.878;2023-12-22T06:19:52;11.43;;;2.72;;
26822;SDS011;14852;51.910;8.878;2023-12-22T06:22:18;11.80;;;2.20;;
26822;SDS011;14852;51.910;8.878;2023-12-22T06:24:44;7.35;;;3.13;;
26822;SDS011;14852;51.910;8.878;2023-12-22T06:27:10;6.57;;;1.73;;
26822;SDS011;14852;51.910;8.878;2023-12-22T06:29:36;9.25;;;2.50;;
26822;SDS011;14852;51.910;8.878;2023-12-22T06:32:03;9.25;;;2.40;;
26822;SDS011;14852;51.910;8.878;2023-12-22T06:34:31;10.77;;;2.50;;
26822;SDS011;14852;51.910;8.878;2023-12-22T06:36:57;7.85;;;2.97;;
26822;SDS011;14852;51.910;8.878;2023-12-22T06:39:23;9.23;;;3.05;;
26822;SDS011;14852;51.910;8.878;2023-12-22T06:41:48;7.30;;;2.70;;
26822;SDS011;14852;51.910;8.878;2023-12-22T06:44:14;7.00;;;2.58;;
26822;SDS011;14852;51.910;8.878;2023-12-22T06:46:40;6.47;;;2.85;;
26822;SDS011;14852;51.910;8.878;2023-12-22T06:49:06;8.05;;;2.72;;
26822;SDS011;14852;51.910;8.878;2023-12-22T06:51:31;8.15;;;2.97;;
26822;SDS011;14852;51.910;8.878;2023-12-22T06:54:00;14.60;;;3.00;;
26822;SDS011;14852;51.910;8.878;2023-12-22T06:56:28;9.57;;;3.50;;
26822;SDS011;14852;51.910;8.878;2023-12-22T06:58:58;6.85;;;2.88;;
26822;SDS011;14852;51.910;8.878;2023-12-22T07:01:25;8.32;;;2.80;;
26822;SDS011;14852;51.910;8.878;2023-12-22T07:04:01;8.73;;;3.55;;
26822;SDS011;14852;51.910;8.878;2023-12-22T07:06:29;11.05;;;3.35;;
26822;SDS011;14852;51.910;8.878;2023-12-22T07:11:41;11.10;;;2.83;;
26822;SDS011;14852;51.910;8.878;2023-12-22T07:14:08;9.25;;;3.25;;
26822;SDS011;14852;51.910;8.878;2023-12-22T07:16:35;12.15;;;3.28;;
26822;SDS011;14852;51.910;8.878;2023-12-22T07:19:01;9.20;;;2.80;;
26822;SDS011;14852;51.910;8.878;2023-12-22T07:21:27;12.82;;;2.80;;
26822;SDS011;14852;51.910;8.878;2023-12-22T07:23:53;9.32;;;2.83;;
26822;SDS011;14852;51.910;8.878;2023-12-22T07:26:18;10.98;;;2.90;;
26822;SDS011;14852;51.910;8.878;2023-12-22T07:28:46;17.90;;;5.00;;
26822;SDS011;14852;51.910;8.878;2023-12-22T07:31:13;21.35;;;4.47;;
26822;SDS011;14852;51.910;8.878;2023-12-22T07:33:39;13.82;;;3.45;;
26822;SDS011;14852;51.910;8.878;2023-12-22T07:36:05;10.20;;;3.35;;
26822;SDS011;14852;51.910;8.878;2023-12-22T07:38:32;7.32;;;2.38;;
26822;SDS011;14852;51.910;8.878;2023-12-22T07:40:58;11.77;;;3.85;;
26822;SDS011;14852;51.910;8.878;2023-12-22T07:43:24;9.00;;;2.88;;
26822;SDS011;14852;51.910;8.878;2023-12-22T07:45:50;9.32;;;4.07;;
26822;SDS011;14852;51.910;8.878;2023-12-22T07:48:16;16.08;;;3.50;;
26822;SDS011;14852;51.910;8.878;2023-12-22T07:50:43;12.65;;;3.20;;
26822;SDS011;14852;51.910;8.878;2023-12-22T07:53:10;9.27;;;3.30;;
26822;SDS011;14852;51.910;8.878;2023-12-22T07:55:35;12.57;;;3.38;;
26822;SDS011;14852;51.910;8.878;2023-12-22T07:58:03;11.68;;;3.42;;
26822;SDS011;14852;51.910;8.878;2023-12-22T08:00:30;9.60;;;3.08;;
26822;SDS011;14852;51.910;8.878;2023-12-22T08:02:55;17.45;;;3.33;;
26822;SDS011;14852;51.910;8.878;2023-12-22T08:05:21;19.20;;;5.00;;
26822;SDS011;14852;51.910;8.878;2023-12-22T08:07:47;5.70;;;2.20;;
26822;SDS011;14852;51.910;8.878;2023-12-22T08:10:12;7.63;;;3.47;;
26822;SDS011;14852;51.910;8.878;2023-12-22T08:12:38;9.82;;;2.65;;
26822;SDS011;14852;51.910;8.878;2023-12-22T08:15:04;10.98;;;4.97;;
26822;SDS011;14852;51.910;8.878;2023-12-22T08:17:31;10.95;;;3.33;;
26822;SDS011;14852;51.910;8.878;2023-12-22T08:19:56;10.60;;;3.70;;
26822;SDS011;14852;51.910;8.878;2023-12-22T08:22:22;7.13;;;3.13;;
26822;SDS011;14852;51.910;8.878;2023-12-22T08:24:48;11.57;;;3.15;;
26822;SDS011;14852;51.910;8.878;2023-12-22T08:27:14;8.23;;;3.20;;
26822;SDS011;14852;51.910;8.878;2023-12-22T08:29:40;14.77;;;3.72;;
26822;SDS011;14852;51.910;8.878;2023-12-22T08:32:06;13.85;;;4.97;;
26822;SDS011;14852;51.910;8.878;2023-12-22T08:34:32;19.05;;;3.97;;
26822;SDS011;14852;51.910;8.878;2023-12-22T08:36:57;14.05;;;3.30;;
26822;SDS011;14852;51.910;8.878;2023-12-22T08:39:23;10.98;;;3.50;;
26822;SDS011;14852;51.910;8.878;2023-12-22T08:41:51;10.73;;;3.72;;
26822;SDS011;14852;51.910;8.878;2023-12-22T08:44:18;12.80;;;4.00;;
26822;SDS011;14852;51.910;8.878;2023-12-22T08:46:44;9.43;;;3.72;;
26822;SDS011;14852;51.910;8.878;2023-12-22T08:49:10;14.98;;;3.75;;
26822;SDS011;14852;51.910;8.878;2023-12-22T08:51:36;11.63;;;3.97;;
26822;SDS011;14852;51.910;8.878;2023-12-22T08:54:02;8.75;;;3.00;;
26822;SDS011;14852;51.910;8.878;2023-12-22T08:56:29;12.95;;;4.35;;
26822;SDS011;14852;51.910;8.878;2023-12-22T08:58:55;12.27;;;3.55;;
26822;SDS011;14852;51.910;8.878;2023-12-22T09:01:23;15.70;;;4.28;;
26822;SDS011;14852;51.910;8.878;2023-12-22T09:03:50;9.70;;;3.35;;
26822;SDS011;14852;51.910;8.878;2023-12-22T09:06:21;13.15;;;3.60;;
26822;SDS011;14852;51.910;8.878;2023-12-22T09:08:48;11.85;;;3.10;;
26822;SDS011;14852;51.910;8.878;2023-12-22T09:11:17;11.93;;;2.60;;
26822;SDS011;14852;51.910;8.878;2023-12-22T09:13:45;10.10;;;3.25;;
26822;SDS011;14852;51.910;8.878;2023-12-22T09:16:11;7.47;;;3.38;;
26822;SDS011;14852;51.910;8.878;2023-12-22T09:18:40;12.05;;;3.42;;
26822;SDS011;14852;51.910;8.878;2023-12-22T09:21:05;6.15;;;2.45;;
26822;SDS011;14852;51.910;8.878;2023-12-22T09:23:32;13.18;;;4.07;;
26822;SDS011;14852;51.910;8.878;2023-12-22T09:25:57;9.57;;;3.35;;
26822;SDS011;14852;51.910;8.878;2023-12-22T09:28:23;14.98;;;3.10;;
26822;SDS011;14852;51.910;8.878;2023-12-22T09:30:50;12.32;;;3.70;;
26822;SDS011;14852;51.910;8.878;2023-12-22T09:33:16;11.18;;;2.90;;
26822;SDS011;14852;51.910;8.878;2023-12-22T09:35:42;8.73;;;2.85;;
26822;SDS011;14852;51.910;8.878;2023-12-22T09:38:08;7.68;;;2.45;;
26822;SDS011;14852;51.910;8.878;2023-12-22T09:40:35;10.48;;;2.78;;
26822;SDS011;14852;51.910;8.878;2023-12-22T09:43:04;6.75;;;2.50;;
26822;SDS011;14852;51.910;8.878;2023-12-22T09:45:32;9.18;;;2.70;;
26822;SDS011;14852;51.910;8.878;2023-12-22T09:47:59;10.70;;;2.58;;
26822;SDS011;14852;51.910;8.878;2023-12-22T09:50:28;8.13;;;2.72;;
26822;SDS011;14852;51.910;8.878;2023-12-22T09:52:55;6.43;;;2.45;;
26822;SDS011;14852;51.910;8.878;2023-12-22T09:55:21;8.73;;;2.13;;
26822;SDS011;14852;51.910;8.878;2023-12-22T09:57:48;5.38;;;2.08;;
26822;SDS011;14852;51.910;8.878;2023-12-22T10:00:16;5.82;;;2.20;;
26822;SDS011;14852;51.910;8.878;2023-12-22T10:02:43;7.13;;;1.73;;
26822;SDS011;14852;51.910;8.878;2023-12-22T10:05:10;9.00;;;3.45;;
26822;SDS011;14852;51.910;8.878;2023-12-22T10:07:40;8.35;;;3.10;;
26822;SDS011;14852;51.910;8.878;2023-12-22T10:10:09;5.90;;;2.22;;
26822;SDS011;14852;51.910;8.878;2023-12-22T10:12:35;4.50;;;2.65;;
26822;SDS011;14852;51.910;8.878;2023-12-22T10:15:02;3.05;;;1.60;;
26822;SDS011;14852;51.910;8.878;2023-12-22T10:17:32;6.63;;;1.98;;
26822;SDS011;14852;51.910;8.878;2023-12-22T10:19:58;4.75;;;1.55;;
26822;SDS011;14852;51.910;8.878;2023-12-22T10:22:24;3.60;;;1.42;;
26822;SDS011;14852;51.910;8.878;2023-12-22T10:24:49;7.47;;;1.83;;
26822;SDS011;14852;51.910;8.878;2023-12-22T10:27:19;5.00;;;1.60;;
26822;SDS011;14852;51.910;8.878;2023-12-22T10:29:48;4.28;;;2.00;;
26822;SDS011;14852;51.910;8.878;2023-12-22T10:32:15;6.75;;;2.17;;
26822;SDS011;14852;51.910;8.878;2023-12-22T10:34:42;5.40;;;2.05;;
26822;SDS011;14852;51.910;8.878;2023-12-22T10:37:08;4.35;;;1.60;;
26822;SDS011;14852;51.910;8.878;2023-12-22T10:39:35;4.22;;;2.15;;
26822;SDS011;14852;51.910;8.878;2023-12-22T10:42:02;6.05;;;2.20;;
26822;SDS011;14852;51.910;8.878;2023-12-22T10:44:29;7.28;;;1.55;;
26822;SDS011;14852;51.910;8.878;2023-12-22T10:46:55;3.13;;;1.48;;
26822;SDS011;14852;51.910;8.878;2023-12-22T10:49:22;4.70;;;1.75;;
26822;SDS011;14852;51.910;8.878;2023-12-22T10:51:49;5.80;;;2.08;;
26822;SDS011;14852;51.910;8.878;2023-12-22T10:54:16;7.45;;;2.08;;
26822;SDS011;14852;51.910;8.878;2023-12-22T10:56:43;8.27;;;1.98;;
26822;SDS011;14852;51.910;8.878;2023-12-22T10:59:09;5.70;;;2.03;;
26822;SDS011;14852;51.910;8.878;2023-12-22T11:01:35;5.82;;;1.42;;
26822;SDS011;14852;51.910;8.878;2023-12-22T11:04:06;5.50;;;1.73;;
26822;SDS011;14852;51.910;8.878;2023-12-22T11:06:41;5.00;;;1.80;;
26822;SDS011;14852;51.910;8.878;2023-12-22T11:09:09;8.65;;;2.28;;
26822;SDS011;14852;51.910;8.878;2023-12-22T11:11:36;4.72;;;1.83;;
26822;SDS011;14852;51.910;8.878;2023-12-22T11:14:04;6.78;;;1.42;;
26822;SDS011;14852;51.910;8.878;2023-12-22T11:16:31;5.03;;;1.63;;
26822;SDS011;14852;51.910;8.878;2023-12-22T11:18:59;5.00;;;1.70;;
26822;SDS011;14852;51.910;8.878;2023-12-22T11:21:26;4.32;;;1.85;;
26822;SDS011;14852;51.910;8.878;2023-12-22T11:23:53;4.40;;;1.63;;
26822;SDS011;14852;51.910;8.878;2023-12-22T11:26:22;4.25;;;1.60;;
26822;SDS011;14852;51.910;8.878;2023-12-22T11:28:49;6.15;;;1.77;;
26822;SDS011;14852;51.910;8.878;2023-12-22T11:31:17;5.30;;;2.75;;
26822;SDS011;14852;51.910;8.878;2023-12-22T11:33:48;7.85;;;2.17;;
26822;SDS011;14852;51.910;8.878;2023-12-22T11:36:17;5.90;;;1.55;;
26822;SDS011;14852;51.910;8.878;2023-12-22T11:38:44;7.43;;;2.40;;
26822;SDS011;14852;51.910;8.878;2023-12-22T11:41:12;4.88;;;1.73;;
26822;SDS011;14852;51.910;8.878;2023-12-22T11:43:44;3.55;;;1.67;;
26822;SDS011;14852;51.910;8.878;2023-12-22T11:46:10;5.47;;;1.85;;
26822;SDS011;14852;51.910;8.878;2023-12-22T11:48:37;3.08;;;1.75;;
26822;SDS011;14852;51.910;8.878;2023-12-22T11:51:12;10.70;;;2.85;;
26822;SDS011;14852;51.910;8.878;2023-12-22T11:53:39;7.10;;;1.40;;
26822;SDS011;14852;51.910;8.878;2023-12-22T11:56:05;4.18;;;2.08;;
26822;SDS011;14852;51.910;8.878;2023-12-22T11:58:39;4.70;;;1.60;;
26822;SDS011;14852;51.910;8.878;2023-12-22T12:01:16;4.82;;;1.98;;
26822;SDS011;14852;51.910;8.878;2023-12-22T12:03:51;4.97;;;1.75;;
26822;SDS011;14852;51.910;8.878;2023-12-22T12:06:22;7.60;;;2.40;;
26822;SDS011;14852;51.910;8.878;2023-12-22T12:08:59;5.47;;;1.98;;
26822;SDS011;14852;51.910;8.878;2023-12-22T12:14:32;2.78;;;1.40;;
26822;SDS011;14852;51.910;8.878;2023-12-22T12:17:06;3.20;;;1.35;;
26822;SDS011;14852;51.910;8.878;2023-12-22T12:19:34;1.98;;;1.27;;
26822;SDS011;14852;51.910;8.878;2023-12-22T12:22:02;4.20;;;2.42;;
26822;SDS011;14852;51.910;8.878;2023-12-22T12:24:28;4.78;;;2.78;;
26822;SDS011;14852;51.910;8.878;2023-12-22T12:26:54;6.55;;;1.35;;
26822;SDS011;14852;51.910;8.878;2023-12-22T12:29:21;4.20;;;1.60;;
26822;SDS011;14852;51.910;8.878;2023-12-22T12:31:47;2.00;;;1.30;;
26822;SDS011;14852;51.910;8.878;2023-12-22T12:34:13;4.05;;;1.63;;
26822;SDS011;14852;51.910;8.878;2023-12-22T12:36:41;2.70;;;1.60;;
26822;SDS011;14852;51.910;8.878;2023-12-22T12:39:08;5.38;;;1.60;;
26822;SDS011;14852;51.910;8.878;2023-12-22T12:41:37;3.55;;;1.55;;
26822;SDS011;14852;51.910;8.878;2023-12-22T12:44:06;3.35;;;2.03;;
26822;SDS011;14852;51.910;8.878;2023-12-22T12:46:34;2.88;;;1.35;;
26822;SDS011;14852;51.910;8.878;2023-12-22T12:51:40;2.53;;;1.40;;
26822;SDS011;14852;51.910;8.878;2023-12-22T12:54:08;1.85;;;1.20;;
26822;SDS011;14852;51.910;8.878;2023-12-22T12:56:36;3.60;;;1.48;;
26822;SDS011;14852;51.910;8.878;2023-12-22T12:59:12;3.55;;;1.13;;
26822;SDS011;14852;51.910;8.878;2023-12-22T13:01:44;3.40;;;1.05;;
26822;SDS011;14852;51.910;8.878;2023-12-22T13:04:11;2.10;;;1.10;;
26822;SDS011;14852;51.910;8.878;2023-12-22T13:06:47;2.28;;;1.45;;
26822;SDS011;14852;51.910;8.878;2023-12-22T13:09:14;2.88;;;1.35;;
26822;SDS011;14852;51.910;8.878;2023-12-22T13:11:42;2.55;;;1.20;;
26822;SDS011;14852;51.910;8.878;2023-12-22T13:14:11;2.38;;;0.98;;
26822;SDS011;14852;51.910;8.878;2023-12-22T13:16:37;3.20;;;1.67;;
26822;SDS011;14852;51.910;8.878;2023-12-22T13:19:04;2.47;;;1.45;;
26822;SDS011;14852;51.910;8.878;2023-12-22T13:21:30;4.15;;;1.30;;
26822;SDS011;14852;51.910;8.878;2023-12-22T13:24:12;2.42;;;1.20;;
26822;SDS011;14852;51.910;8.878;2023-12-22T13:26:42;2.10;;;1.00;;
26822;SDS011;14852;51.910;8.878;2023-12-22T13:29:09;1.95;;;0.98;;
26822;SDS011;14852;51.910;8.878;2023-12-22T13:31:37;2.10;;;1.15;;
26822;SDS011;14852;51.910;8.878;2023-12-22T13:34:09;1.27;;;0.93;;
26822;SDS011;14852;51.910;8.878;2023-12-22T13:36:35;1.27;;;0.90;;
26822;SDS011;14852;51.910;8.878;2023-12-22T13:39:02;1.80;;;1.13;;
26822;SDS011;14852;51.910;8.878;2023-12-22T13:41:31;1.45;;;0.95;;
26822;SDS011;14852;51.910;8.878;2023-12-22T13:44:06;2.33;;;1.30;;
26822;SDS011;14852;51.910;8.878;2023-12-22T13:46:32;1.67;;;0.85;;
26822;SDS011;14852;51.910;8.878;2023-12-22T13:49:03;3.65;;;1.48;;
26822;SDS011;14852;51.910;8.878;2023-12-22T13:51:45;1.52;;;0.80;;
26822;SDS011;14852;51.910;8.878;2023-12-22T13:54:13;1.70;;;0.90;;
26822;SDS011;14852;51.910;8.878;2023-12-22T13:56:41;0.88;;;0.70;;
26822;SDS011;14852;51.910;8.878;2023-12-22T13:59:09;1.90;;;1.23;;
26822;SDS011;14852;51.910;8.878;2023-12-22T14:01:35;1.10;;;0.57;;
26822;SDS011;14852;51.910;8.878;2023-12-22T14:04:02;1.40;;;0.80;;
26822;SDS011;14852;51.910;8.878;2023-12-22T14:06:28;0.75;;;0.57;;
26822;SDS011;14852;51.910;8.878;2023-12-22T14:08:54;0.70;;;0.70;;
26822;SDS011;14852;51.910;8.878;2023-12-22T14:11:21;0.98;;;0.60;;
26822;SDS011;14852;51.910;8.878;2023-12-22T14:13:47;1.40;;;0.75;;
26822;SDS011;14852;51.910;8.878;2023-12-22T14:16:14;1.95;;;0.65;;
26822;SDS011;14852;51.910;8.878;2023-12-22T14:18:41;1.20;;;0.85;;
26822;SDS011;14852;51.910;8.878;2023-12-22T14:21:07;1.73;;;1.20;;
26822;SDS011;14852;51.910;8.878;2023-12-22T14:23:33;0.70;;;0.70;;
26822;SDS011;14852;51.910;8.878;2023-12-22T14:25:59;3.22;;;0.73;;
26822;SDS011;14852;51.910;8.878;2023-12-22T14:28:25;1.98;;;1.10;;
26822;SDS011;14852;51.910;8.878;2023-12-22T14:30:51;0.75;;;0.50;;
26822;SDS011;14852;51.910;8.878;2023-12-22T14:33:16;1.00;;;0.90;;
26822;SDS011;14852;51.910;8.878;2023-12-22T14:35:42;0.75;;;0.68;;
26822;SDS011;14852;51.910;8.878;2023-12-22T14:38:08;1.23;;;1.13;;
26822;SDS011;14852;51.910;8.878;2023-12-22T14:40:34;1.20;;;1.10;;
26822;SDS011;14852;51.910;8.878;2023-12-22T14:43:00;2.25;;;0.95;;
26822;SDS011;14852;51.910;8.878;2023-12-22T14:45:27;1.42;;;0.90;;
26822;SDS011;14852;51.910;8.878;2023-12-22T14:47:53;1.42;;;1.00;;
26822;SDS011;14852;51.910;8.878;2023-12-22T14:50:19;0.65;;;0.65;;
26822;SDS011;14852;51.910;8.878;2023-12-22T14:52:45;1.08;;;0.70;;
26822;SDS011;14852;51.910;8.878;2023-12-22T14:55:11;1.15;;;0.80;;
26822;SDS011;14852;51.910;8.878;2023-12-22T14:57:36;0.93;;;0.80;;